• Join FlightAware (Why Join?)
  • Login
  • US Flag 
Rudolph Flight #1: Arrived! 
12:51AM EST


 

Airport Tracker/Info


-or-


 

Live Flight TrackerFlight Track Log ✈ N734M ✈ 15-May-2013 ✈ KFSD - KBIS

Flight Track Log - Related Links

Times and Time Zones

All times are in EDT time to prevent confusion due to time zone crossing. See the N734M flight status page for this flight to view local times or setup timezone preferences in your user account.

Time Position Orientation Groundspeed Altitude Reporting Facility
EDT Latitude Longitude Course Direction KTS MPH feet Rate Location/Type
07:49PM 43.6475 -96.7839 329° Northwest 90 104 3,600  Level Minneapolis Center
07:50PM 43.6747 -96.8033 333° Northwest 92 106 4,300 540 Climbing Minneapolis Center
07:51PM 43.6958 -96.8219 327° Northwest 91 105 4,800 480 Climbing Minneapolis Center
07:52PM 43.7181 -96.8411 328° Northwest 92 106 5,300 480 Climbing Minneapolis Center
07:53PM 43.7378 -96.8537 329° Northwest  Level FlightAware Approximate
07:53PM 43.7397 -96.8603 327° Northwest 93 107 5,900  Level Minneapolis Center
07:54PM 43.7654 -96.8770 329° Northwest  Level FlightAware Approximate
07:54PM 43.7686 -96.8853 328° Northwest 96 110 6,000  Level Minneapolis Center
07:55PM 43.7939 -96.9067 329° Northwest 107 123 6,000  Level Minneapolis Center
07:56PM 43.8394 -96.9464 328° Northwest 127 146 6,000  Level Minneapolis Center
07:57PM 43.8717 -96.9739 328° Northwest 132 152 6,000  Level Minneapolis Center
07:58PM 43.9094 -97.0075 327° Northwest 134 154 6,000  Level Minneapolis Center
07:59PM 43.9411 -97.0358 327° Northwest 135 155 6,000  Level Minneapolis Center
08:01PM 43.9733 -97.0639 328° Northwest 135 155 6,000  Level Minneapolis Center
08:02PM 44.0047 -97.0911 328° Northwest 134 154 6,000  Level Minneapolis Center
08:03PM 44.0356 -97.1183 328° Northwest 134 154 6,000  Level Minneapolis Center
08:04PM 44.0694 -97.1486 327° Northwest 128 147 6,000  Level Minneapolis Center
08:05PM 44.0972 -97.1731 328° Northwest 123 142 6,000  Level Minneapolis Center
08:06PM 44.1322 -97.2039 328° Northwest 123 142 6,000  Level Minneapolis Center
08:07PM 44.1606 -97.2289 328° Northwest 122 140 6,000  Level Minneapolis Center
08:08PM 44.1883 -97.2533 328° Northwest 121 139 6,000  Level Minneapolis Center
08:09PM 44.2164 -97.2781 328° Northwest 120 138 6,000  Level Minneapolis Center
08:10PM 44.2508 -97.3086 328° Northwest 121 139 6,000  Level Minneapolis Center
08:11PM 44.2794 -97.3336 328° Northwest 121 139 6,000  Level Minneapolis Center
08:12PM 44.3067 -97.3589 326° Northwest 120 138 6,000  Level Minneapolis Center
08:13PM 44.3350 -97.3825 329° Northwest 119 137 6,000  Level Minneapolis Center
08:14PM 44.3628 -97.4083 326° Northwest 119 137 6,000  Level Minneapolis Center
08:15PM 44.3964 -97.4375 328° Northwest 119 137 6,000  Level Minneapolis Center
08:16PM 44.4239 -97.4614 328° Northwest 119 137 6,000  Level Minneapolis Center
08:17PM 44.4572 -97.4911 328° Northwest 119 137 6,000  Level Minneapolis Center
08:19PM 44.4850 -97.5158 328° Northwest 118 136 6,000  Level Minneapolis Center
08:20PM 44.5183 -97.5464 327° Northwest 119 137 6,000  Level Minneapolis Center
08:21PM 44.5511 -97.5775 326° Northwest 119 137 6,000  Level Minneapolis Center
08:22PM 44.5808 -97.6031 329° Northwest 121 139 6,000  Level Minneapolis Center
08:23PM 44.6164 -97.6342 328° Northwest 124 143 6,000  Level Minneapolis Center
08:24PM 44.6458 -97.6603 328° Northwest 125 144 6,000  Level Minneapolis Center
08:25PM 44.6744 -97.6872 326° Northwest 125 144 6,000  Level Minneapolis Center
08:26PM 44.7031 -97.7142 326° Northwest 124 143 6,000  Level Minneapolis Center
08:27PM 44.7344 -97.7417 328° Northwest 127 146 6,000  Level Minneapolis Center
08:28PM 44.7667 -97.7700 328° Northwest 131 151 6,000  Level Minneapolis Center
08:29PM 44.8042 -97.8061 326° Northwest 135 155 6,000  Level Minneapolis Center
08:30PM 44.8319 -97.8275 331° Northwest 137 158 6,000  Level Minneapolis Center
08:31PM 44.8661 -97.8608 325° Northwest 133 153 6,000  Level Minneapolis Center
08:32PM 44.8986 -97.8881 329° Northwest 133 153 6,000  Level Minneapolis Center
08:33PM 44.9297 -97.9142 329° Northwest 131 151 6,000  Level Minneapolis Center
08:34PM 44.9569 -97.9419 324° Northwest 127 146 6,000  Level Minneapolis Center
08:36PM 44.9881 -97.9708 327° Northwest 131 151 6,000  Level Minneapolis Center
08:37PM 45.0292 -98.0064 329° Northwest 128 147 6,000 -60 Level Minneapolis Center
08:38PM 45.0583 -98.0336 327° Northwest 126 145 5,900 -60 Descending Minneapolis Center
08:39PM 45.0878 -98.0606 327° Northwest 126 145 5,900  Level Minneapolis Center
08:40PM 45.1161 -98.0856 328° Northwest 124 143 5,900  Level Minneapolis Center
08:41PM 45.1444 -98.1122 326° Northwest 123 142 5,900  Level Minneapolis Center
08:42PM 45.1811 -98.1408 331° Northwest 123 142 5,900  Level Minneapolis Center
08:43PM 45.2092 -98.1692 325° Northwest 124 143 5,900  Level Minneapolis Center
08:44PM 45.2350 -98.1972 323° Northwest 122 140 5,900  Level Minneapolis Center
08:45PM 45.2625 -98.2222 327° Northwest 120 138 5,900  Level Minneapolis Center
08:46PM 45.2892 -98.2489 325° Northwest 119 137 5,900  Level Minneapolis Center
08:47PM 45.3242 -98.2803 328° Northwest 121 139 5,900  Level Minneapolis Center
08:48PM 45.3519 -98.3047 328° Northwest 120 138 6,000  Climbing Minneapolis Center
08:49PM 45.3844 -98.3347 327° Northwest 118 136 6,000  Level Minneapolis Center
08:51PM 45.4128 -98.3619 326° Northwest 119 137 6,000  Level Minneapolis Center
08:52PM 45.4419 -98.4017 316° Northwest 121 139 6,000  Level Minneapolis Center
08:53PM 45.4631 -98.4394 309° West 122 140 6,000  Level Minneapolis Center
08:54PM 45.4875 -98.4831 309° West 120 138 6,000  Level Minneapolis Center
08:55PM 45.5078 -98.5111 316° Northwest 120 138 6,000  Level Minneapolis Center
08:56PM 45.5367 -98.5583 311° West 122 140 6,000  Level Minneapolis Center
08:57PM 45.5581 -98.5964 309° West 124 143 6,000  Level Minneapolis Center
08:58PM 45.5794 -98.6339 309° West 126 145 6,000  Level Minneapolis Center
08:59PM 45.6031 -98.6717 312° West 127 146 6,000  Level Minneapolis Center
09:00PM 45.6308 -98.7194 310° West 128 147 6,000  Level Minneapolis Center
09:01PM 45.6536 -98.7547 313° West 126 145 6,000  Level Minneapolis Center
09:02PM 45.6758 -98.7928 310° West 125 144 6,000  Level Minneapolis Center
09:03PM 45.6989 -98.8311 311° West 126 145 6,000  Level Minneapolis Center
09:04PM 45.7208 -98.8681 310° West 125 144 6,000  Level Minneapolis Center
09:05PM 45.7439 -98.9067 311° West 126 145 6,000  Level Minneapolis Center
09:06PM 45.7722 -98.9536 311° West 127 146 6,000  Level Minneapolis Center
09:07PM 45.7944 -98.9908 311° West 126 145 6,000  Level Minneapolis Center
09:08PM 45.8158 -99.0289 309° West 125 144 6,000  Level Minneapolis Center
09:09PM 45.8381 -99.0667 310° West 124 143 6,000  Level Minneapolis Center
09:10PM 45.8611 -99.1036 312° West 124 143 6,000  Level Minneapolis Center
09:11PM 45.8786 -99.1339 310° West 124 143 6,000 -60 Level Minneapolis Center
09:12PM 45.9106 -99.1875 311° West 125 144 5,900  Descending Minneapolis Center
09:13PM 45.9331 -99.2256 310° West 126 145 6,000  Climbing Minneapolis Center
09:14PM 45.9558 -99.2653 310° West 126 145 6,000 -60 Level Minneapolis Center
09:15PM 45.9792 -99.3050 310° West 128 147 5,900  Descending Minneapolis Center
09:16PM 46.0011 -99.3439 309° West 128 147 6,000  Climbing Minneapolis Center
09:17PM 46.0244 -99.3833 310° West 128 147 6,000  Level Minneapolis Center
09:18PM 46.0536 -99.4311 311° West 130 150 6,100  Climbing Minneapolis Center
09:19PM 46.0764 -99.4717 309° West 130 150 6,100  Level Minneapolis Center
09:20PM 46.0986 -99.5100 310° West 129 148 6,100  Level Minneapolis Center
09:22PM 46.1208 -99.5469 311° West 127 146 6,100  Level Minneapolis Center
09:23PM 46.1444 -99.5861 311° West 127 146 6,100  Level Minneapolis Center
09:24PM 46.1675 -99.6269 309° West 128 147 6,100  Level Minneapolis Center
09:25PM 46.1872 -99.6617 309° West 131 151 6,100  Level Minneapolis Center
09:26PM 46.2192 -99.7164 310° West 131 151 6,100  Level Minneapolis Center
09:27PM 46.2369 -99.7481 309° West 130 150 6,100  Level Minneapolis Center
09:28PM 46.2658 -99.7972 310° West 131 151 6,100  Level Minneapolis Center
09:29PM 46.2908 -99.8383 311° West 130 150 6,100  Level Minneapolis Center
09:30PM 46.3192 -99.8892 309° West 130 150 6,100  Level Minneapolis Center
09:31PM 46.3433 -99.9292 311° West 130 150 6,100  Level Minneapolis Center
09:32PM 46.3658 -99.9694 309° West 127 146 6,100  Level Minneapolis Center
09:33PM 46.3892 -100.0100 310° West 129 148 6,100  Level Minneapolis Center
09:34PM 46.4183 -100.0594 311° West 129 148 6,100  Level Minneapolis Center
09:35PM 46.4414 -100.0997 310° West 129 148 6,100  Level Minneapolis Center
09:36PM 46.4647 -100.1414 309° West 131 151 6,100 -60 Level Minneapolis Center
09:37PM 46.4839 -100.1750 310° West 131 151 6,000 -60 Descending Minneapolis Center
09:39PM 46.5103 -100.2181 312° West  Level FlightAware Approximate
09:40PM 46.5331 -100.3142 300° West 100 115 6,000  Level Minneapolis Center
09:41PM 46.5508 -100.3622 298° West 130 150 6,000 -360 Level Minneapolis Center
09:42PM 46.5728 -100.4192 299° West 145 167 5,300 -720 Descending Minneapolis Center
09:43PM 46.5886 -100.4722 293° West 142 163 4,600 -720 Descending Minneapolis Center
09:44PM 46.6017 -100.5258 290° West 139 160 3,900 -540 Descending Minneapolis Center
09:45PM 46.6297 -100.5575 322° Northwest 125 144 3,500 -240 Descending Minneapolis Center
09:46PM 46.6464 -100.5076 300° West  Level FlightAware Approximate
09:46PM 46.6511 -100.5864 317° Northwest 108 124 3,500  Level Minneapolis Center
09:47PM 46.6725 -100.6139 319° Northwest 103 119 3,600  Climbing Minneapolis Center
09:48PM 46.6914 -100.6392 317° Northwest 93 107 3,600 -240 Level Minneapolis Center
09:49PM 46.7089 -100.6631 317° Northwest 85 98 3,200 -420 Descending Minneapolis Center
09:50PM 46.7269 -100.6864 318° Northwest 85 98 2,800 -420 Descending Minneapolis Center
09:51PM 46.7433 -100.7078 318° Northwest 78 90 2,400 -480 Descending Minneapolis Center
09:53PM 46.7600 -100.7297 318° Northwest 79 91 1,900 -360 Descending Minneapolis Center
09:54PM 46.7744 -100.7478 319° Northwest 72 83 1,700 -120 Descending Minneapolis Center
09:55PM 46.7853 -100.7614 319° Northwest 70 81 1,700  Level Minneapolis Center